sensor_id;sensor_type;location;lat;lon;timestamp;temperature;humidity
40622;DHT22;26324;52.040;11.528;2023-12-14T00:01:15;6.60;87.60
40622;DHT22;26324;52.040;11.528;2023-12-14T00:03:42;6.60;87.40
40622;DHT22;26324;52.040;11.528;2023-12-14T00:06:13;6.60;87.30
40622;DHT22;26324;52.040;11.528;2023-12-14T00:08:41;6.70;87.40
40622;DHT22;26324;52.040;11.528;2023-12-14T00:11:10;6.60;87.50
40622;DHT22;26324;52.040;11.528;2023-12-14T00:13:38;6.60;87.40
40622;DHT22;26324;52.040;11.528;2023-12-14T00:16:07;6.60;87.30
40622;DHT22;26324;52.040;11.528;2023-12-14T00:18:35;6.60;87.00
40622;DHT22;26324;52.040;11.528;2023-12-14T00:21:03;6.50;87.00
40622;DHT22;26324;52.040;11.528;2023-12-14T00:23:30;6.60;86.90
40622;DHT22;26324;52.040;11.528;2023-12-14T00:25:57;6.50;87.00
40622;DHT22;26324;52.040;11.528;2023-12-14T00:28:25;6.50;86.90
40622;DHT22;26324;52.040;11.528;2023-12-14T00:30:57;6.50;86.70
40622;DHT22;26324;52.040;11.528;2023-12-14T00:33:24;6.40;86.80
40622;DHT22;26324;52.040;11.528;2023-12-14T00:35:52;6.40;86.80
40622;DHT22;26324;52.040;11.528;2023-12-14T00:38:19;6.40;86.80
40622;DHT22;26324;52.040;11.528;2023-12-14T00:40:46;6.30;86.80
40622;DHT22;26324;52.040;11.528;2023-12-14T00:43:13;6.30;86.80
40622;DHT22;26324;52.040;11.528;2023-12-14T00:45:41;6.30;86.80
40622;DHT22;26324;52.040;11.528;2023-12-14T00:48:11;6.30;86.70
40622;DHT22;26324;52.040;11.528;2023-12-14T00:50:38;6.30;86.90
40622;DHT22;26324;52.040;11.528;2023-12-14T00:53:06;6.30;86.80
40622;DHT22;26324;52.040;11.528;2023-12-14T00:55:33;6.20;86.70
40622;DHT22;26324;52.040;11.528;2023-12-14T00:58:01;6.30;86.90
40622;DHT22;26324;52.040;11.528;2023-12-14T01:00:28;6.30;86.80
40622;DHT22;26324;52.040;11.528;2023-12-14T01:02:56;6.10;86.80
40622;DHT22;26324;52.040;11.528;2023-12-14T01:05:23;6.20;87.00
40622;DHT22;26324;52.040;11.528;2023-12-14T01:07:50;6.20;87.00
40622;DHT22;26324;52.040;11.528;2023-12-14T01:10:18;6.20;86.90
40622;DHT22;26324;52.040;11.528;2023-12-14T01:12:45;6.20;87.10
40622;DHT22;26324;52.040;11.528;2023-12-14T01:15:12;6.20;87.10
40622;DHT22;26324;52.040;11.528;2023-12-14T01:17:39;6.30;87.10
40622;DHT22;26324;52.040;11.528;2023-12-14T01:20:08;6.30;86.90
40622;DHT22;26324;52.040;11.528;2023-12-14T01:22:36;6.30;86.70
40622;DHT22;26324;52.040;11.528;2023-12-14T01:25:04;6.30;86.80
40622;DHT22;26324;52.040;11.528;2023-12-14T01:27:31;6.20;86.60
40622;DHT22;26324;52.040;11.528;2023-12-14T01:29:58;6.20;86.70
40622;DHT22;26324;52.040;11.528;2023-12-14T01:32:25;6.20;86.90
40622;DHT22;26324;52.040;11.528;2023-12-14T01:34:53;6.20;86.80
40622;DHT22;26324;52.040;11.528;2023-12-14T01:37:20;6.10;86.60
40622;DHT22;26324;52.040;11.528;2023-12-14T01:39:47;6.10;86.50
40622;DHT22;26324;52.040;11.528;2023-12-14T01:42:15;6.10;86.70
40622;DHT22;26324;52.040;11.528;2023-12-14T01:44:42;6.10;86.50
40622;DHT22;26324;52.040;11.528;2023-12-14T01:47:09;6.10;86.60
40622;DHT22;26324;52.040;11.528;2023-12-14T01:49:37;6.10;86.50
40622;DHT22;26324;52.040;11.528;2023-12-14T01:52:04;6.10;86.50
40622;DHT22;26324;52.040;11.528;2023-12-14T01:54:32;6.10;86.50
40622;DHT22;26324;52.040;11.528;2023-12-14T01:57:01;6.10;86.40
40622;DHT22;26324;52.040;11.528;2023-12-14T01:59:28;6.10;86.50
40622;DHT22;26324;52.040;11.528;2023-12-14T02:01:56;6.10;86.50
40622;DHT22;26324;52.040;11.528;2023-12-14T02:04:24;6.10;86.70
40622;DHT22;26324;52.040;11.528;2023-12-14T02:06:52;6.10;86.70
40622;DHT22;26324;52.040;11.528;2023-12-14T02:09:19;6.10;86.40
40622;DHT22;26324;52.040;11.528;2023-12-14T02:11:47;6.10;86.30
40622;DHT22;26324;52.040;11.528;2023-12-14T02:14:14;6.10;86.40
40622;DHT22;26324;52.040;11.528;2023-12-14T02:16:41;6.00;86.40
40622;DHT22;26324;52.040;11.528;2023-12-14T02:19:09;6.00;86.30
40622;DHT22;26324;52.040;11.528;2023-12-14T02:21:36;6.00;86.40
40622;DHT22;26324;52.040;11.528;2023-12-14T02:24:04;5.90;86.40
40622;DHT22;26324;52.040;11.528;2023-12-14T02:26:31;6.00;86.50
40622;DHT22;26324;52.040;11.528;2023-12-14T02:28:58;6.00;86.40
40622;DHT22;26324;52.040;11.528;2023-12-14T02:31:26;6.00;86.40
40622;DHT22;26324;52.040;11.528;2023-12-14T02:33:53;5.90;86.20
40622;DHT22;26324;52.040;11.528;2023-12-14T02:36:21;5.90;86.40
40622;DHT22;26324;52.040;11.528;2023-12-14T02:38:48;6.00;86.30
40622;DHT22;26324;52.040;11.528;2023-12-14T02:41:16;6.00;86.40
40622;DHT22;26324;52.040;11.528;2023-12-14T02:43:43;6.00;86.40
40622;DHT22;26324;52.040;11.528;2023-12-14T02:46:10;6.00;86.30
40622;DHT22;26324;52.040;11.528;2023-12-14T02:48:41;6.00;86.50
40622;DHT22;26324;52.040;11.528;2023-12-14T02:51:14;5.90;86.60
40622;DHT22;26324;52.040;11.528;2023-12-14T02:53:42;5.90;86.70
40622;DHT22;26324;52.040;11.528;2023-12-14T02:56:10;5.90;86.70
40622;DHT22;26324;52.040;11.528;2023-12-14T02:58:38;5.90;86.70
40622;DHT22;26324;52.040;11.528;2023-12-14T03:01:06;5.80;86.60
40622;DHT22;26324;52.040;11.528;2023-12-14T03:03:33;5.80;86.70
40622;DHT22;26324;52.040;11.528;2023-12-14T03:06:06;5.90;86.80
40622;DHT22;26324;52.040;11.528;2023-12-14T03:08:33;5.80;86.90
40622;DHT22;26324;52.040;11.528;2023-12-14T03:11:01;5.80;86.70
40622;DHT22;26324;52.040;11.528;2023-12-14T03:13:28;5.80;86.50
40622;DHT22;26324;52.040;11.528;2023-12-14T03:15:55;5.80;86.50
40622;DHT22;26324;52.040;11.528;2023-12-14T03:18:23;5.80;86.30
40622;DHT22;26324;52.040;11.528;2023-12-14T03:20:50;5.80;86.40
40622;DHT22;26324;52.040;11.528;2023-12-14T03:23:18;5.80;86.40
40622;DHT22;26324;52.040;11.528;2023-12-14T03:25:45;5.80;86.10
40622;DHT22;26324;52.040;11.528;2023-12-14T03:28:12;5.80;86.10
40622;DHT22;26324;52.040;11.528;2023-12-14T03:30:39;5.70;86.20
40622;DHT22;26324;52.040;11.528;2023-12-14T03:33:07;5.70;86.30
40622;DHT22;26324;52.040;11.528;2023-12-14T03:35:35;5.80;86.40
40622;DHT22;26324;52.040;11.528;2023-12-14T03:38:03;5.70;86.60
40622;DHT22;26324;52.040;11.528;2023-12-14T03:40:30;5.70;86.70
40622;DHT22;26324;52.040;11.528;2023-12-14T03:42:58;5.60;86.70
40622;DHT22;26324;52.040;11.528;2023-12-14T03:45:25;5.70;86.40
40622;DHT22;26324;52.040;11.528;2023-12-14T03:47:52;5.70;86.50
40622;DHT22;26324;52.040;11.528;2023-12-14T03:50:20;5.60;86.20
40622;DHT22;26324;52.040;11.528;2023-12-14T03:52:47;5.60;86.40
40622;DHT22;26324;52.040;11.528;2023-12-14T03:55:15;5.60;86.30
40622;DHT22;26324;52.040;11.528;2023-12-14T03:57:42;5.60;86.20
40622;DHT22;26324;52.040;11.528;2023-12-14T04:00:11;5.60;86.10
40622;DHT22;26324;52.040;11.528;2023-12-14T04:02:40;5.60;86.10
40622;DHT22;26324;52.040;11.528;2023-12-14T04:05:08;5.60;86.20
40622;DHT22;26324;52.040;11.528;2023-12-14T04:07:37;5.50;86.00
40622;DHT22;26324;52.040;11.528;2023-12-14T04:10:11;5.50;86.20
40622;DHT22;26324;52.040;11.528;2023-12-14T04:12:39;5.60;86.30
40622;DHT22;26324;52.040;11.528;2023-12-14T04:15:08;5.60;86.30
40622;DHT22;26324;52.040;11.528;2023-12-14T04:17:36;5.60;86.00
40622;DHT22;26324;52.040;11.528;2023-12-14T04:20:04;5.60;85.70
40622;DHT22;26324;52.040;11.528;2023-12-14T04:22:33;5.50;86.40
40622;DHT22;26324;52.040;11.528;2023-12-14T04:25:06;5.60;86.00
40622;DHT22;26324;52.040;11.528;2023-12-14T04:27:34;5.50;85.90
40622;DHT22;26324;52.040;11.528;2023-12-14T04:30:01;5.50;86.20
40622;DHT22;26324;52.040;11.528;2023-12-14T04:32:28;5.50;86.20
40622;DHT22;26324;52.040;11.528;2023-12-14T04:34:56;5.50;86.20
40622;DHT22;26324;52.040;11.528;2023-12-14T04:37:23;5.50;86.00
40622;DHT22;26324;52.040;11.528;2023-12-14T04:39:50;5.40;86.10
40622;DHT22;26324;52.040;11.528;2023-12-14T04:42:18;5.40;86.50
40622;DHT22;26324;52.040;11.528;2023-12-14T04:44:45;5.30;86.50
40622;DHT22;26324;52.040;11.528;2023-12-14T04:47:12;5.40;86.80
40622;DHT22;26324;52.040;11.528;2023-12-14T04:49:40;5.40;86.60
40622;DHT22;26324;52.040;11.528;2023-12-14T04:52:07;5.30;86.70
40622;DHT22;26324;52.040;11.528;2023-12-14T04:54:35;5.30;86.80
40622;DHT22;26324;52.040;11.528;2023-12-14T04:57:05;5.30;87.00
40622;DHT22;26324;52.040;11.528;2023-12-14T04:59:32;5.30;86.90
40622;DHT22;26324;52.040;11.528;2023-12-14T05:01:59;5.30;86.80
40622;DHT22;26324;52.040;11.528;2023-12-14T05:04:26;5.40;87.00
40622;DHT22;26324;52.040;11.528;2023-12-14T05:06:54;5.50;86.90
40622;DHT22;26324;52.040;11.528;2023-12-14T05:09:21;5.50;86.70
40622;DHT22;26324;52.040;11.528;2023-12-14T05:11:49;5.40;87.10
40622;DHT22;26324;52.040;11.528;2023-12-14T05:14:16;5.40;87.10
40622;DHT22;26324;52.040;11.528;2023-12-14T05:16:43;5.30;87.40
40622;DHT22;26324;52.040;11.528;2023-12-14T05:19:11;5.30;87.10
40622;DHT22;26324;52.040;11.528;2023-12-14T05:21:39;5.30;87.40
40622;DHT22;26324;52.040;11.528;2023-12-14T05:24:07;5.30;87.20
40622;DHT22;26324;52.040;11.528;2023-12-14T05:26:34;5.30;87.30
40622;DHT22;26324;52.040;11.528;2023-12-14T05:29:01;5.30;87.50
40622;DHT22;26324;52.040;11.528;2023-12-14T05:31:29;5.20;87.40
40622;DHT22;26324;52.040;11.528;2023-12-14T05:33:56;5.20;87.70
40622;DHT22;26324;52.040;11.528;2023-12-14T05:36:23;5.20;87.80
40622;DHT22;26324;52.040;11.528;2023-12-14T05:38:51;5.30;87.70
40622;DHT22;26324;52.040;11.528;2023-12-14T05:41:18;5.30;87.40
40622;DHT22;26324;52.040;11.528;2023-12-14T05:43:45;5.30;87.10
40622;DHT22;26324;52.040;11.528;2023-12-14T05:46:23;5.30;87.40
40622;DHT22;26324;52.040;11.528;2023-12-14T05:48:51;5.20;87.50
40622;DHT22;26324;52.040;11.528;2023-12-14T05:51:32;5.20;87.50
40622;DHT22;26324;52.040;11.528;2023-12-14T05:53:59;5.30;87.50
40622;DHT22;26324;52.040;11.528;2023-12-14T05:56:27;5.10;87.50
40622;DHT22;26324;52.040;11.528;2023-12-14T05:58:54;5.10;87.40
40622;DHT22;26324;52.040;11.528;2023-12-14T06:03:51;5.20;87.30
40622;DHT22;26324;52.040;11.528;2023-12-14T06:06:18;5.20;87.30
40622;DHT22;26324;52.040;11.528;2023-12-14T06:08:46;5.10;87.10
40622;DHT22;26324;52.040;11.528;2023-12-14T06:11:13;5.10;87.00
40622;DHT22;26324;52.040;11.528;2023-12-14T06:13:41;5.10;87.80
40622;DHT22;26324;52.040;11.528;2023-12-14T06:16:08;5.10;87.50
40622;DHT22;26324;52.040;11.528;2023-12-14T06:18:40;5.10;87.50
40622;DHT22;26324;52.040;11.528;2023-12-14T06:21:11;5.20;87.50
40622;DHT22;26324;52.040;11.528;2023-12-14T06:23:38;5.10;87.30
40622;DHT22;26324;52.040;11.528;2023-12-14T06:28:33;5.20;87.10
40622;DHT22;26324;52.040;11.528;2023-12-14T06:31:01;5.10;87.10
40622;DHT22;26324;52.040;11.528;2023-12-14T06:33:28;5.10;87.30
40622;DHT22;26324;52.040;11.528;2023-12-14T06:35:56;5.20;86.90
40622;DHT22;26324;52.040;11.528;2023-12-14T06:38:23;5.10;87.20
40622;DHT22;26324;52.040;11.528;2023-12-14T06:40:50;5.20;87.20
40622;DHT22;26324;52.040;11.528;2023-12-14T06:43:18;5.20;86.90
40622;DHT22;26324;52.040;11.528;2023-12-14T06:45:45;5.10;87.10
40622;DHT22;26324;52.040;11.528;2023-12-14T06:48:12;5.10;87.00
40622;DHT22;26324;52.040;11.528;2023-12-14T06:50:39;5.20;86.80
40622;DHT22;26324;52.040;11.528;2023-12-14T06:53:07;5.20;86.80
40622;DHT22;26324;52.040;11.528;2023-12-14T06:55:34;5.20;86.80
40622;DHT22;26324;52.040;11.528;2023-12-14T07:00:35;5.10;87.00
40622;DHT22;26324;52.040;11.528;2023-12-14T07:03:03;5.10;86.90
40622;DHT22;26324;52.040;11.528;2023-12-14T07:05:30;5.10;86.60
40622;DHT22;26324;52.040;11.528;2023-12-14T07:07:59;5.10;87.10
40622;DHT22;26324;52.040;11.528;2023-12-14T07:10:26;5.20;87.00
40622;DHT22;26324;52.040;11.528;2023-12-14T07:12:54;5.20;86.90
40622;DHT22;26324;52.040;11.528;2023-12-14T07:15:21;5.10;87.00
40622;DHT22;26324;52.040;11.528;2023-12-14T07:17:48;5.20;86.70
40622;DHT22;26324;52.040;11.528;2023-12-14T07:20:16;5.20;87.00
40622;DHT22;26324;52.040;11.528;2023-12-14T07:22:43;5.30;86.70
40622;DHT22;26324;52.040;11.528;2023-12-14T07:25:11;5.30;86.30
40622;DHT22;26324;52.040;11.528;2023-12-14T07:27:38;5.20;86.30
40622;DHT22;26324;52.040;11.528;2023-12-14T08:19:23;5.80;83.20
40622;DHT22;26324;52.040;11.528;2023-12-14T08:24:18;5.70;83.80
40622;DHT22;26324;52.040;11.528;2023-12-14T08:26:45;5.70;83.80
40622;DHT22;26324;52.040;11.528;2023-12-14T08:29:12;5.20;85.30
40622;DHT22;26324;52.040;11.528;2023-12-14T08:31:40;5.10;85.80
40622;DHT22;26324;52.040;11.528;2023-12-14T08:34:07;5.10;86.00
40622;DHT22;26324;52.040;11.528;2023-12-14T08:36:34;5.10;86.10
40622;DHT22;26324;52.040;11.528;2023-12-14T08:39:02;5.10;86.20
40622;DHT22;26324;52.040;11.528;2023-12-14T08:41:30;5.10;86.20
40622;DHT22;26324;52.040;11.528;2023-12-14T08:43:58;5.10;86.20
40622;DHT22;26324;52.040;11.528;2023-12-14T08:48:53;5.10;86.00
40622;DHT22;26324;52.040;11.528;2023-12-14T08:53:48;5.10;85.90
40622;DHT22;26324;52.040;11.528;2023-12-14T08:56:15;5.10;85.90
40622;DHT22;26324;52.040;11.528;2023-12-14T08:58:42;5.10;85.80
40622;DHT22;26324;52.040;11.528;2023-12-14T09:01:10;5.10;85.80
40622;DHT22;26324;52.040;11.528;2023-12-14T09:03:37;5.10;85.90
40622;DHT22;26324;52.040;11.528;2023-12-14T09:06:05;5.50;85.20
40622;DHT22;26324;52.040;11.528;2023-12-14T09:08:32;5.20;85.60
40622;DHT22;26324;52.040;11.528;2023-12-14T09:11:00;5.10;85.70
40622;DHT22;26324;52.040;11.528;2023-12-14T09:13:27;5.10;85.70
40622;DHT22;26324;52.040;11.528;2023-12-14T09:15:54;5.10;85.60
40622;DHT22;26324;52.040;11.528;2023-12-14T09:18:22;5.10;85.80
40622;DHT22;26324;52.040;11.528;2023-12-14T09:20:51;5.10;85.90
40622;DHT22;26324;52.040;11.528;2023-12-14T09:23:18;5.10;85.90
40622;DHT22;26324;52.040;11.528;2023-12-14T09:25:48;5.10;85.80
40622;DHT22;26324;52.040;11.528;2023-12-14T09:33:12;5.60;84.30
40622;DHT22;26324;52.040;11.528;2023-12-14T09:35:40;5.20;85.00
40622;DHT22;26324;52.040;11.528;2023-12-14T09:38:08;5.10;85.10
40622;DHT22;26324;52.040;11.528;2023-12-14T09:40:35;5.40;84.70
40622;DHT22;26324;52.040;11.528;2023-12-14T09:43:03;5.10;84.90
40622;DHT22;26324;52.040;11.528;2023-12-14T09:45:35;5.10;84.90
40622;DHT22;26324;52.040;11.528;2023-12-14T09:48:03;5.10;84.90
40622;DHT22;26324;52.040;11.528;2023-12-14T09:50:31;5.10;84.80
40622;DHT22;26324;52.040;11.528;2023-12-14T09:52:59;5.10;84.80
40622;DHT22;26324;52.040;11.528;2023-12-14T09:55:27;5.10;84.90
40622;DHT22;26324;52.040;11.528;2023-12-14T09:57:54;5.20;84.90
40622;DHT22;26324;52.040;11.528;2023-12-14T10:00:35;5.10;84.90
40622;DHT22;26324;52.040;11.528;2023-12-14T10:03:24;5.10;84.80
40622;DHT22;26324;52.040;11.528;2023-12-14T10:05:54;5.30;84.70
40622;DHT22;26324;52.040;11.528;2023-12-14T10:08:22;5.10;84.80
40622;DHT22;26324;52.040;11.528;2023-12-14T10:10:52;5.10;85.00
40622;DHT22;26324;52.040;11.528;2023-12-14T10:13:37;5.10;85.20
40622;DHT22;26324;52.040;11.528;2023-12-14T10:16:05;5.10;85.10
40622;DHT22;26324;52.040;11.528;2023-12-14T10:18:33;5.10;85.20
40622;DHT22;26324;52.040;11.528;2023-12-14T10:21:06;5.00;85.20
40622;DHT22;26324;52.040;11.528;2023-12-14T10:23:33;5.10;85.30
40622;DHT22;26324;52.040;11.528;2023-12-14T10:26:02;5.10;85.20
40622;DHT22;26324;52.040;11.528;2023-12-14T10:28:31;5.10;85.30
40622;DHT22;26324;52.040;11.528;2023-12-14T10:30:58;5.00;85.30
40622;DHT22;26324;52.040;11.528;2023-12-14T10:33:26;5.00;85.40
40622;DHT22;26324;52.040;11.528;2023-12-14T10:38:24;5.00;85.30
40622;DHT22;26324;52.040;11.528;2023-12-14T10:40:53;5.00;85.50
40622;DHT22;26324;52.040;11.528;2023-12-14T10:43:21;5.00;85.70
40622;DHT22;26324;52.040;11.528;2023-12-14T10:46:09;5.00;85.80
40622;DHT22;26324;52.040;11.528;2023-12-14T10:48:38;5.00;85.90
40622;DHT22;26324;52.040;11.528;2023-12-14T11:09:08;5.70;83.30
40622;DHT22;26324;52.040;11.528;2023-12-14T11:12:03;5.30;84.60
40622;DHT22;26324;52.040;11.528;2023-12-14T11:17:06;5.00;85.60
40622;DHT22;26324;52.040;11.528;2023-12-14T11:19:33;5.00;85.80
40622;DHT22;26324;52.040;11.528;2023-12-14T11:24:45;5.00;86.10
40622;DHT22;26324;52.040;11.528;2023-12-14T11:27:20;5.20;85.80
40622;DHT22;26324;52.040;11.528;2023-12-14T11:29:48;5.00;85.90
40622;DHT22;26324;52.040;11.528;2023-12-14T11:34:46;5.10;85.90
40622;DHT22;26324;52.040;11.528;2023-12-14T11:37:14;5.00;86.10
40622;DHT22;26324;52.040;11.528;2023-12-14T11:39:42;5.00;86.10
40622;DHT22;26324;52.040;11.528;2023-12-14T11:42:11;5.00;86.10
40622;DHT22;26324;52.040;11.528;2023-12-14T11:44:41;5.10;86.20
40622;DHT22;26324;52.040;11.528;2023-12-14T11:47:08;5.10;86.00
40622;DHT22;26324;52.040;11.528;2023-12-14T11:49:36;5.10;86.00
40622;DHT22;26324;52.040;11.528;2023-12-14T11:52:04;5.10;86.00
40622;DHT22;26324;52.040;11.528;2023-12-14T11:57:01;5.10;85.90
40622;DHT22;26324;52.040;11.528;2023-12-14T11:59:28;5.10;86.00
40622;DHT22;26324;52.040;11.528;2023-12-14T12:01:58;5.10;86.20
40622;DHT22;26324;52.040;11.528;2023-12-14T12:04:27;5.10;86.40
40622;DHT22;26324;52.040;11.528;2023-12-14T12:07:05;5.10;86.20
40622;DHT22;26324;52.040;11.528;2023-12-14T12:09:35;5.10;86.30
40622;DHT22;26324;52.040;11.528;2023-12-14T12:12:10;5.10;86.10
40622;DHT22;26324;52.040;11.528;2023-12-14T12:17:06;5.10;86.40
40622;DHT22;26324;52.040;11.528;2023-12-14T12:19:35;5.10;86.50
40622;DHT22;26324;52.040;11.528;2023-12-14T12:22:03;5.10;86.50
40622;DHT22;26324;52.040;11.528;2023-12-14T12:24:31;5.10;86.50
40622;DHT22;26324;52.040;11.528;2023-12-14T12:27:01;5.20;86.50
40622;DHT22;26324;52.040;11.528;2023-12-14T12:31:56;5.20;86.20
40622;DHT22;26324;52.040;11.528;2023-12-14T12:34:23;5.20;86.10
40622;DHT22;26324;52.040;11.528;2023-12-14T12:36:51;5.10;86.10
40622;DHT22;26324;52.040;11.528;2023-12-14T12:39:18;5.20;86.10
40622;DHT22;26324;52.040;11.528;2023-12-14T12:41:45;5.20;85.90
40622;DHT22;26324;52.040;11.528;2023-12-14T12:44:12;5.20;85.90
40622;DHT22;26324;52.040;11.528;2023-12-14T12:46:40;5.20;86.00
40622;DHT22;26324;52.040;11.528;2023-12-14T12:49:08;5.20;86.10
40622;DHT22;26324;52.040;11.528;2023-12-14T12:51:35;5.20;86.10
40622;DHT22;26324;52.040;11.528;2023-12-14T12:54:03;5.30;85.90
40622;DHT22;26324;52.040;11.528;2023-12-14T12:56:39;5.20;85.90
40622;DHT22;26324;52.040;11.528;2023-12-14T12:59:07;5.40;85.90
40622;DHT22;26324;52.040;11.528;2023-12-14T13:01:36;5.20;85.70
40622;DHT22;26324;52.040;11.528;2023-12-14T13:06:33;5.20;85.90
40622;DHT22;26324;52.040;11.528;2023-12-14T13:09:00;5.30;86.00
40622;DHT22;26324;52.040;11.528;2023-12-14T13:11:30;5.30;86.10
40622;DHT22;26324;52.040;11.528;2023-12-14T13:13:58;5.30;86.10
40622;DHT22;26324;52.040;11.528;2023-12-14T13:16:25;5.30;86.20
40622;DHT22;26324;52.040;11.528;2023-12-14T13:18:56;5.30;86.30
40622;DHT22;26324;52.040;11.528;2023-12-14T13:21:24;5.30;86.20
40622;DHT22;26324;52.040;11.528;2023-12-14T13:23:52;5.30;86.20
40622;DHT22;26324;52.040;11.528;2023-12-14T13:26:20;5.30;86.30
40622;DHT22;26324;52.040;11.528;2023-12-14T13:31:15;5.30;86.30
40622;DHT22;26324;52.040;11.528;2023-12-14T13:33:43;5.30;86.50
40622;DHT22;26324;52.040;11.528;2023-12-14T13:36:10;5.30;86.60
40622;DHT22;26324;52.040;11.528;2023-12-14T13:38:37;5.30;86.70
40622;DHT22;26324;52.040;11.528;2023-12-14T13:41:05;5.30;86.70
40622;DHT22;26324;52.040;11.528;2023-12-14T13:43:32;5.20;86.80
40622;DHT22;26324;52.040;11.528;2023-12-14T13:46:00;5.30;86.80
40622;DHT22;26324;52.040;11.528;2023-12-14T13:48:44;5.30;86.90
40622;DHT22;26324;52.040;11.528;2023-12-14T13:53:39;5.30;86.80
40622;DHT22;26324;52.040;11.528;2023-12-14T13:56:07;5.30;86.70
40622;DHT22;26324;52.040;11.528;2023-12-14T13:58:35;5.30;86.60
40622;DHT22;26324;52.040;11.528;2023-12-14T14:01:05;5.30;86.70
40622;DHT22;26324;52.040;11.528;2023-12-14T14:03:36;5.30;86.70
40622;DHT22;26324;52.040;11.528;2023-12-14T14:06:06;5.30;86.70
40622;DHT22;26324;52.040;11.528;2023-12-14T14:08:34;5.30;86.60
40622;DHT22;26324;52.040;11.528;2023-12-14T14:11:02;5.30;86.50
40622;DHT22;26324;52.040;11.528;2023-12-14T14:13:29;5.30;86.50
40622;DHT22;26324;52.040;11.528;2023-12-14T14:15:57;5.30;86.40
40622;DHT22;26324;52.040;11.528;2023-12-14T14:18:25;5.30;86.50
40622;DHT22;26324;52.040;11.528;2023-12-14T14:20:52;5.30;86.50
40622;DHT22;26324;52.040;11.528;2023-12-14T14:23:19;5.30;86.50
40622;DHT22;26324;52.040;11.528;2023-12-14T14:25:47;5.30;86.50
40622;DHT22;26324;52.040;11.528;2023-12-14T14:28:14;5.30;86.50
40622;DHT22;26324;52.040;11.528;2023-12-14T14:30:41;5.30;86.60
40622;DHT22;26324;52.040;11.528;2023-12-14T14:38:04;5.30;86.50
40622;DHT22;26324;52.040;11.528;2023-12-14T14:40:31;5.30;86.60
40622;DHT22;26324;52.040;11.528;2023-12-14T14:42:59;5.40;86.70
40622;DHT22;26324;52.040;11.528;2023-12-14T14:45:26;5.30;86.70
40622;DHT22;26324;52.040;11.528;2023-12-14T14:47:54;5.30;86.70
40622;DHT22;26324;52.040;11.528;2023-12-14T14:50:21;5.30;86.70
40622;DHT22;26324;52.040;11.528;2023-12-14T14:52:49;5.30;86.70
40622;DHT22;26324;52.040;11.528;2023-12-14T14:55:16;5.30;86.90
40622;DHT22;26324;52.040;11.528;2023-12-14T14:57:43;5.30;86.90
40622;DHT22;26324;52.040;11.528;2023-12-14T15:00:11;5.30;86.80
40622;DHT22;26324;52.040;11.528;2023-12-14T15:02:38;5.30;86.80
40622;DHT22;26324;52.040;11.528;2023-12-14T15:05:06;5.30;86.80
40622;DHT22;26324;52.040;11.528;2023-12-14T15:10:01;5.30;86.80
40622;DHT22;26324;52.040;11.528;2023-12-14T15:12:30;5.30;86.90
40622;DHT22;26324;52.040;11.528;2023-12-14T15:14:57;5.30;87.00
40622;DHT22;26324;52.040;11.528;2023-12-14T15:17:25;5.30;86.90
40622;DHT22;26324;52.040;11.528;2023-12-14T15:19:52;5.30;87.00
40622;DHT22;26324;52.040;11.528;2023-12-14T15:22:20;5.30;86.90
40622;DHT22;26324;52.040;11.528;2023-12-14T15:24:47;5.70;86.20
40622;DHT22;26324;52.040;11.528;2023-12-14T15:27:16;5.30;86.60
40622;DHT22;26324;52.040;11.528;2023-12-14T15:29:43;5.30;86.70
40622;DHT22;26324;52.040;11.528;2023-12-14T15:32:11;5.20;86.60
40622;DHT22;26324;52.040;11.528;2023-12-14T15:34:39;5.20;87.10
40622;DHT22;26324;52.040;11.528;2023-12-14T15:37:06;5.30;87.10
40622;DHT22;26324;52.040;11.528;2023-12-14T15:39:33;5.30;87.00
40622;DHT22;26324;52.040;11.528;2023-12-14T15:42:07;5.30;86.90
40622;DHT22;26324;52.040;11.528;2023-12-14T15:44:34;5.40;86.90
40622;DHT22;26324;52.040;11.528;2023-12-14T15:47:02;5.40;86.90
40622;DHT22;26324;52.040;11.528;2023-12-14T15:51:57;5.40;87.00
40622;DHT22;26324;52.040;11.528;2023-12-14T15:54:24;5.40;86.90
40622;DHT22;26324;52.040;11.528;2023-12-14T15:56:51;5.40;86.90
40622;DHT22;26324;52.040;11.528;2023-12-14T15:59:19;5.30;87.10
40622;DHT22;26324;52.040;11.528;2023-12-14T16:01:46;5.30;86.90
40622;DHT22;26324;52.040;11.528;2023-12-14T16:04:16;5.40;87.00
40622;DHT22;26324;52.040;11.528;2023-12-14T16:06:43;5.40;86.90
40622;DHT22;26324;52.040;11.528;2023-12-14T16:11:38;5.30;86.70
40622;DHT22;26324;52.040;11.528;2023-12-14T16:14:06;5.30;86.60
40622;DHT22;26324;52.040;11.528;2023-12-14T16:16:33;5.30;86.50
40622;DHT22;26324;52.040;11.528;2023-12-14T16:19:00;5.20;86.50
40622;DHT22;26324;52.040;11.528;2023-12-14T16:23:57;5.30;86.70
40622;DHT22;26324;52.040;11.528;2023-12-14T16:26:24;5.20;86.80
40622;DHT22;26324;52.040;11.528;2023-12-14T16:31:19;5.10;87.00
40622;DHT22;26324;52.040;11.528;2023-12-14T16:33:46;5.10;86.90
40622;DHT22;26324;52.040;11.528;2023-12-14T16:36:14;5.10;87.00
40622;DHT22;26324;52.040;11.528;2023-12-14T16:38:41;5.10;86.90
40622;DHT22;26324;52.040;11.528;2023-12-14T16:41:12;5.10;86.70
40622;DHT22;26324;52.040;11.528;2023-12-14T16:43:40;5.10;86.40
40622;DHT22;26324;52.040;11.528;2023-12-14T16:46:08;5.10;86.20
40622;DHT22;26324;52.040;11.528;2023-12-14T16:48:35;5.10;86.10
40622;DHT22;26324;52.040;11.528;2023-12-14T16:51:05;5.10;86.00
40622;DHT22;26324;52.040;11.528;2023-12-14T16:53:33;5.10;86.00
40622;DHT22;26324;52.040;11.528;2023-12-14T16:56:01;5.10;86.10
40622;DHT22;26324;52.040;11.528;2023-12-14T16:58:28;5.10;86.10
40622;DHT22;26324;52.040;11.528;2023-12-14T17:00:56;5.10;86.20
40622;DHT22;26324;52.040;11.528;2023-12-14T17:03:24;5.10;86.20
40622;DHT22;26324;52.040;11.528;2023-12-14T17:05:51;5.10;86.30
40622;DHT22;26324;52.040;11.528;2023-12-14T17:08:20;5.10;86.40
40622;DHT22;26324;52.040;11.528;2023-12-14T17:15:47;5.00;86.90
40622;DHT22;26324;52.040;11.528;2023-12-14T17:18:14;5.00;87.00
40622;DHT22;26324;52.040;11.528;2023-12-14T17:20:41;5.00;87.00
40622;DHT22;26324;52.040;11.528;2023-12-14T17:23:09;5.10;87.00
40622;DHT22;26324;52.040;11.528;2023-12-14T17:25:36;5.00;87.00
40622;DHT22;26324;52.040;11.528;2023-12-14T17:28:04;5.10;87.00
40622;DHT22;26324;52.040;11.528;2023-12-14T17:30:31;5.10;87.10
40622;DHT22;26324;52.040;11.528;2023-12-14T17:32:59;5.10;87.10
40622;DHT22;26324;52.040;11.528;2023-12-14T17:35:32;5.10;87.20
40622;DHT22;26324;52.040;11.528;2023-12-14T17:37:59;5.10;87.20
40622;DHT22;26324;52.040;11.528;2023-12-14T17:42:54;5.10;87.20
40622;DHT22;26324;52.040;11.528;2023-12-14T17:45:22;5.20;87.20
40622;DHT22;26324;52.040;11.528;2023-12-14T17:47:49;5.20;87.10
40622;DHT22;26324;52.040;11.528;2023-12-14T17:50:17;5.20;87.10
40622;DHT22;26324;52.040;11.528;2023-12-14T17:52:44;5.20;87.00